Time;durP1;ratioP1;P1;durP2;ratioP2;P2;SDS_P1;SDS_P2;PMS_P1;PMS_P2;Temp;Humidity;BMP_temperature;BMP_pressure;BME280_temperature;BME280_humidity;BME280_pressure;Samples;Min_cycle;Max_cycle;Signal;HPM_P1;HPM_P2
2022/09/08 00:00:55;;;;;;;36.63;32.73;;;17.70;99.90;;;;;;6242149;23;20383;-51
2022/09/08 00:03:23;;;;;;;33.30;30.00;;;17.70;99.90;;;;;;6242642;23;20368;-48
2022/09/08 00:05:51;;;;;;;33.00;29.87;;;17.70;99.90;;;;;;6242287;23;21105;-48
2022/09/08 00:08:20;;;;;;;35.20;31.57;;;17.60;99.90;;;;;;6242677;23;20431;-48
2022/09/08 00:10:47;;;;;;;34.73;31.27;;;17.60;99.90;;;;;;6242627;23;20922;-48
2022/09/08 00:13:13;;;;;;;34.70;31.43;;;17.60;99.90;;;;;;6242546;23;20443;-50
2022/09/08 00:15:39;;;;;;;34.23;30.93;;;17.50;99.90;;;;;;6242266;23;20382;-50
2022/09/08 00:18:06;;;;;;;32.70;29.40;;;17.50;99.90;;;;;;6242469;23;20850;-49
2022/09/08 00:20:31;;;;;;;34.60;30.90;;;17.50;99.90;;;;;;6242492;23;20216;-48
2022/09/08 00:22:57;;;;;;;33.10;29.80;;;17.50;99.90;;;;;;6242803;23;20458;-49
2022/09/08 00:25:23;;;;;;;32.90;29.57;;;17.40;99.90;;;;;;6242522;23;20160;-48
2022/09/08 00:27:48;;;;;;;35.23;31.60;;;17.40;99.90;;;;;;6242289;23;20360;-47
2022/09/08 00:30:14;;;;;;;34.20;30.70;;;17.40;99.90;;;;;;6242551;23;20810;-50
2022/09/08 00:32:39;;;;;;;33.87;30.57;;;17.40;99.90;;;;;;6242255;23;20666;-49
2022/09/08 00:35:14;;;;;;;35.27;31.63;;;17.40;99.90;;;;;;6242760;23;20244;-48
2022/09/08 00:37:43;;;;;;;35.60;32.00;;;17.40;99.90;;;;;;6242483;23;20138;-48
2022/09/08 00:40:09;;;;;;;35.07;31.57;;;17.40;99.90;;;;;;6242320;23;20727;-46
2022/09/08 00:42:35;;;;;;;35.20;31.70;;;17.40;99.90;;;;;;6241882;23;20479;-45
2022/09/08 00:45:01;;;;;;;35.77;32.20;;;17.40;99.90;;;;;;6242230;23;20396;-51
2022/09/08 00:47:30;;;;;;;34.17;30.47;;;17.40;99.90;;;;;;6242014;23;20423;-47
2022/09/08 00:50:04;;;;;;;36.70;33.00;;;17.30;99.90;;;;;;6241949;23;20416;-49
2022/09/08 00:52:45;;;;;;;34.53;31.03;;;17.30;99.90;;;;;;6242012;23;20419;-51
2022/09/08 00:55:12;;;;;;;33.63;30.33;;;17.30;99.90;;;;;;6242215;23;20410;-47
2022/09/08 00:57:38;;;;;;;35.53;32.07;;;17.30;99.90;;;;;;6241723;23;20551;-49
2022/09/08 01:00:06;;;;;;;33.83;30.43;;;17.30;99.90;;;;;;6242212;23;20383;-47
2022/09/08 01:02:32;;;;;;;33.10;29.80;;;17.30;99.90;;;;;;6241722;23;20360;-52
2022/09/08 01:05:10;;;;;;;36.20;32.30;;;17.20;99.90;;;;;;6241931;23;20387;-50
2022/09/08 01:13:38;;;;;;;33.93;30.43;;;17.10;99.90;;;;;;6242000;23;20537;-47
2022/09/08 01:16:08;;;;;;;36.33;32.80;;;17.10;99.90;;;;;;6241909;23;20384;-46
2022/09/08 01:18:36;;;;;;;36.80;32.80;;;17.10;99.90;;;;;;6241667;23;20353;-49
2022/09/08 01:21:07;;;;;;;38.70;34.80;;;17.20;99.90;;;;;;6241800;23;20361;-49
2022/09/08 01:24:09;;;;;;;39.00;34.90;;;17.20;99.90;;;;;;6241862;23;20376;-49
2022/09/08 01:26:38;;;;;;;35.80;32.20;;;17.20;99.90;;;;;;6240916;23;20364;-48
2022/09/08 01:29:07;;;;;;;36.93;32.73;;;17.20;99.90;;;;;;6241445;23;20365;-45
2022/09/08 01:31:37;;;;;;;35.33;31.90;;;17.20;99.90;;;;;;6241717;23;20443;-49
2022/09/08 01:34:03;;;;;;;34.43;31.03;;;17.20;99.90;;;;;;6241674;23;20469;-46
2022/09/08 01:36:28;;;;;;;35.50;31.90;;;17.10;99.90;;;;;;6241543;23;20402;-47
2022/09/08 01:38:54;;;;;;;33.97;30.40;;;17.10;99.90;;;;;;6242018;23;20195;-49
2022/09/08 01:41:20;;;;;;;34.27;30.67;;;17.00;99.90;;;;;;6241365;23;20152;-48
2022/09/08 01:43:45;;;;;;;33.87;30.57;;;16.90;99.90;;;;;;6241386;23;20148;-48
2022/09/08 01:46:11;;;;;;;34.83;31.33;;;16.90;99.90;;;;;;6241606;23;20561;-50
2022/09/08 01:48:37;;;;;;;34.97;31.33;;;16.90;99.90;;;;;;6241312;23;20528;-51
2022/09/08 01:51:06;;;;;;;35.53;32.03;;;16.90;99.90;;;;;;6241623;23;20925;-47
2022/09/08 01:53:32;;;;;;;34.23;30.87;;;16.90;99.90;;;;;;6241368;23;20793;-49
2022/09/08 01:55:57;;;;;;;34.70;31.30;;;16.90;99.90;;;;;;6241723;23;20372;-50
2022/09/08 01:58:23;;;;;;;35.03;31.37;;;16.80;99.90;;;;;;6241806;23;20394;-49
2022/09/08 02:00:49;;;;;;;35.07;31.33;;;16.80;99.90;;;;;;6241247;23;20146;-49
2022/09/08 02:03:14;;;;;;;35.30;31.60;;;16.80;99.90;;;;;;6239941;23;20193;-47
2022/09/08 02:05:42;;;;;;;36.53;32.73;;;16.80;99.90;;;;;;6241619;23;20203;-49
2022/09/08 02:08:09;;;;;;;32.57;29.03;;;16.80;99.90;;;;;;6241271;23;20219;-52
2022/09/08 02:10:35;;;;;;;32.57;29.33;;;16.80;99.90;;;;;;6241262;23;20384;-47
2022/09/08 02:13:02;;;;;;;34.37;30.87;;;16.80;99.90;;;;;;6241249;23;20743;-47
2022/09/08 02:15:27;;;;;;;33.67;30.37;;;16.80;99.90;;;;;;6241511;23;20387;-47
2022/09/08 02:17:53;;;;;;;36.87;32.10;;;16.80;99.90;;;;;;6239406;22;20390;-46
2022/09/08 02:20:20;;;;;;;35.07;31.43;;;16.80;99.90;;;;;;6241262;23;20139;-47
2022/09/08 02:22:46;;;;;;;33.13;29.73;;;16.80;99.90;;;;;;6241713;23;20134;-46
2022/09/08 02:25:13;;;;;;;33.93;30.73;;;16.80;99.90;;;;;;6241222;23;20418;-50
2022/09/08 02:27:39;;;;;;;34.43;30.70;;;16.80;99.90;;;;;;6241313;23;20365;-48
2022/09/08 02:30:07;;;;;;;35.17;31.63;;;16.70;99.90;;;;;;6241236;23;20368;-47
2022/09/08 02:32:33;;;;;;;36.00;32.33;;;16.70;99.90;;;;;;6241229;23;20736;-50
2022/09/08 02:34:59;;;;;;;34.13;30.77;;;16.70;99.90;;;;;;6241270;23;20361;-50
2022/09/08 02:37:24;;;;;;;35.03;31.33;;;16.70;99.90;;;;;;6241226;23;20376;-49
2022/09/08 02:39:50;;;;;;;36.80;33.00;;;16.70;99.90;;;;;;6241277;23;20190;-45
2022/09/08 02:42:16;;;;;;;35.40;31.60;;;16.70;99.90;;;;;;6241314;23;20209;-49
2022/09/08 02:44:41;;;;;;;32.90;29.47;;;16.70;99.90;;;;;;6241203;23;20151;-47
2022/09/08 02:47:07;;;;;;;36.87;33.10;;;16.70;99.90;;;;;;6241204;23;20380;-51
2022/09/08 02:49:33;;;;;;;34.33;30.63;;;16.70;99.90;;;;;;6240763;23;20145;-51
2022/09/08 02:51:59;;;;;;;34.90;31.30;;;16.70;99.90;;;;;;6240998;23;20640;-50
2022/09/08 02:54:25;;;;;;;34.90;31.20;;;16.60;99.90;;;;;;6241153;23;20387;-48
2022/09/08 02:56:51;;;;;;;33.50;30.20;;;16.70;99.90;;;;;;6241474;23;20684;-48
2022/09/08 02:59:17;;;;;;;33.47;30.07;;;16.60;99.90;;;;;;6241463;23;20179;-53
2022/09/08 03:01:49;;;;;;;32.13;29.03;;;16.60;99.90;;;;;;6240759;23;20418;-47
2022/09/08 03:04:15;;;;;;;33.40;30.13;;;16.60;99.90;;;;;;6240992;23;20370;-49
2022/09/08 03:06:40;;;;;;;31.97;28.60;;;16.60;99.90;;;;;;6239301;23;20749;-47
2022/09/08 03:09:07;;;;;;;31.87;28.50;;;16.60;99.90;;;;;;6241304;23;20152;-49
2022/09/08 03:11:33;;;;;;;34.03;30.37;;;16.60;99.90;;;;;;6241430;23;20203;-49
2022/09/08 03:13:59;;;;;;;31.87;28.53;;;16.60;99.90;;;;;;6242887;23;20403;-50
2022/09/08 03:16:26;;;;;;;31.60;28.20;;;16.60;99.90;;;;;;6243215;23;20733;-48
2022/09/08 03:18:52;;;;;;;29.70;26.70;;;16.60;99.90;;;;;;6243068;23;20352;-50
2022/09/08 03:21:18;;;;;;;30.30;27.37;;;16.70;99.90;;;;;;6242624;23;20352;-49
2022/09/08 03:23:44;;;;;;;28.00;25.20;;;16.70;99.90;;;;;;6242818;23;20165;-47
2022/09/08 03:26:13;;;;;;;26.97;24.43;;;16.80;99.90;;;;;;6243170;23;20146;-47
2022/09/08 03:28:40;;;;;;;27.20;24.50;;;16.90;99.90;;;;;;6242992;23;20141;-46
2022/09/08 03:31:07;;;;;;;27.70;25.00;;;16.90;99.90;;;;;;6242821;23;20372;-47
2022/09/08 03:33:33;;;;;;;26.27;23.67;;;16.90;99.90;;;;;;6242742;23;20870;-45
2022/09/08 03:36:00;;;;;;;25.43;22.93;;;16.90;99.90;;;;;;6242408;23;20419;-50
2022/09/08 03:38:26;;;;;;;24.63;22.23;;;16.90;99.90;;;;;;6242875;23;20849;-47
2022/09/08 03:40:52;;;;;;;25.93;22.87;;;16.90;99.90;;;;;;6242857;23;20363;-46
2022/09/08 03:43:18;;;;;;;25.60;23.07;;;16.90;99.90;;;;;;6242542;23;20393;-46
2022/09/08 03:45:44;;;;;;;26.20;23.73;;;16.90;99.90;;;;;;6242647;23;20240;-50
2022/09/08 03:48:11;;;;;;;24.47;22.07;;;16.90;99.90;;;;;;6242999;23;20192;-45
2022/09/08 03:50:37;;;;;;;22.33;19.97;;;16.90;99.90;;;;;;6242403;23;20380;-49
2022/09/08 03:53:02;;;;;;;23.17;20.93;;;16.90;99.90;;;;;;6242599;23;20404;-48
2022/09/08 03:55:28;;;;;;;22.43;20.40;;;17.00;99.90;;;;;;6242461;23;20161;-47
2022/09/08 03:57:53;;;;;;;20.30;18.30;;;17.10;99.90;;;;;;6242673;23;20157;-50
2022/09/08 04:00:19;;;;;;;20.77;18.87;;;17.20;99.90;;;;;;6241954;23;20138;-47
2022/09/08 04:02:45;;;;;;;20.50;18.70;;;17.20;99.90;;;;;;6242568;23;20141;-52
2022/09/08 04:05:10;;;;;;;19.63;17.87;;;17.20;99.90;;;;;;6242589;23;20596;-49
2022/09/08 04:07:37;;;;;;;19.10;17.47;;;17.30;99.90;;;;;;6241984;23;20204;-47
2022/09/08 04:10:04;;;;;;;19.10;17.40;;;17.40;99.90;;;;;;6242677;23;20187;-48
2022/09/08 04:12:30;;;;;;;19.27;17.50;;;17.50;99.90;;;;;;6242685;23;20412;-46
2022/09/08 04:14:55;;;;;;;18.73;17.03;;;17.50;99.90;;;;;;6235211;23;20367;-49
2022/09/08 04:17:22;;;;;;;18.40;16.50;;;17.60;99.90;;;;;;6231839;23;20825;-51
2022/09/08 04:19:50;;;;;;;17.50;15.90;;;17.60;99.90;;;;;;6232560;23;20873;-45
2022/09/08 04:22:17;;;;;;;16.80;15.30;;;17.70;99.90;;;;;;6233372;23;20356;-48
2022/09/08 04:24:43;;;;;;;17.03;15.43;;;17.70;99.90;;;;;;6232535;23;20380;-48
2022/09/08 04:27:09;;;;;;;16.87;15.37;;;17.80;99.90;;;;;;6233624;23;20364;-46
2022/09/08 04:29:35;;;;;;;16.57;14.87;;;17.80;99.90;;;;;;6233080;23;20365;-51
2022/09/08 04:32:01;;;;;;;15.20;13.80;;;17.80;99.90;;;;;;6232366;23;21077;-47
2022/09/08 04:34:26;;;;;;;15.40;14.00;;;17.80;99.90;;;;;;6232487;23;20177;-46
2022/09/08 04:36:52;;;;;;;15.87;14.50;;;17.90;99.90;;;;;;6232874;23;20404;-49
2022/09/08 04:39:20;;;;;;;15.93;14.37;;;18.00;99.90;;;;;;6235541;23;20455;-46
2022/09/08 04:41:45;;;;;;;15.93;14.43;;;18.00;99.90;;;;;;6242136;23;20181;-48
2022/09/08 04:44:11;;;;;;;16.80;14.10;;;18.10;99.90;;;;;;6239929;23;20392;-47
2022/09/08 04:46:36;;;;;;;14.03;12.60;;;18.30;99.90;;;;;;6240565;23;20169;-46
2022/09/08 04:49:03;;;;;;;14.63;13.23;;;18.40;99.90;;;;;;6241751;23;20145;-45
2022/09/08 04:51:30;;;;;;;14.60;13.30;;;18.40;99.90;;;;;;6242601;23;20199;-47
2022/09/08 04:53:57;;;;;;;13.80;12.70;;;18.50;99.90;;;;;;6242099;23;20498;-48
2022/09/08 04:56:24;;;;;;;14.30;13.10;;;18.60;99.90;;;;;;6241814;23;20365;-49
2022/09/08 04:58:50;;;;;;;13.50;12.20;;;18.60;99.90;;;;;;6241624;22;20854;-50
2022/09/08 05:01:19;;;;;;;14.20;12.90;;;18.80;99.90;;;;;;6241632;23;20384;-47
2022/09/08 05:03:47;;;;;;;14.30;13.03;;;18.90;99.90;;;;;;6242249;23;20449;-49
2022/09/08 05:06:15;;;;;;;14.23;12.93;;;19.00;99.90;;;;;;6242074;23;20431;-50
2022/09/08 05:08:43;;;;;;;14.10;12.80;;;19.20;99.90;;;;;;6242069;23;20379;-49
2022/09/08 05:11:09;;;;;;;14.33;13.13;;;19.20;94.90;;;;;;6242280;23;20756;-51
2022/09/08 05:13:35;;;;;;;13.90;12.70;;;19.20;92.60;;;;;;6241509;23;20420;-49
2022/09/08 05:16:14;;;;;;;14.20;12.90;;;19.30;90.20;;;;;;6242062;23;20431;-51
2022/09/08 05:18:41;;;;;;;14.57;13.37;;;19.40;81.30;;;;;;6242046;23;20357;-49
2022/09/08 05:21:08;;;;;;;14.40;13.20;;;19.40;76.10;;;;;;6242040;23;20808;-46
2022/09/08 05:23:34;;;;;;;13.47;12.27;;;19.50;71.70;;;;;;6241950;23;20365;-51
2022/09/08 05:26:06;;;;;;;14.33;13.17;;;19.60;64.30;;;;;;6242019;23;20386;-47
2022/09/08 05:28:35;;;;;;;14.57;13.30;;;19.60;55.90;;;;;;6241422;23;20578;-45
2022/09/08 05:31:01;;;;;;;15.07;13.67;;;19.70;48.30;;;;;;6241361;23;20365;-49
2022/09/08 05:33:27;;;;;;;15.47;13.77;;;19.70;46.20;;;;;;6239358;23;20446;-48
2022/09/08 05:35:53;;;;;;;14.37;13.13;;;19.70;42.70;;;;;;6241273;23;20210;-47
2022/09/08 05:38:20;;;;;;;14.27;13.03;;;19.80;37.30;;;;;;6241236;23;20364;-48
2022/09/08 05:40:45;;;;;;;14.93;13.63;;;19.90;29.40;;;;;;6240989;22;20718;-51
2022/09/08 05:43:11;;;;;;;14.93;13.63;;;19.90;26.60;;;;;;6241271;23;20364;-48
2022/09/08 05:45:37;;;;;;;14.40;13.20;;;19.90;26.50;;;;;;6239514;23;20162;-45
2022/09/08 05:48:03;;;;;;;14.10;12.70;;;20.00;24.70;;;;;;6241617;23;20685;-49
2022/09/08 05:50:34;;;;;;;14.50;13.40;;;20.00;22.50;;;;;;6240959;23;20483;-47
2022/09/08 05:53:01;;;;;;;14.90;13.60;;;20.00;22.00;;;;;;6239323;23;20411;-51
2022/09/08 05:55:28;;;;;;;15.80;14.33;;;20.00;19.20;;;;;;6238886;23;20365;-49
2022/09/08 05:57:54;;;;;;;14.47;13.27;;;20.10;17.50;;;;;;6239153;23;20886;-46
2022/09/08 06:00:20;;;;;;;15.27;13.97;;;20.20;18.70;;;;;;6239688;23;20368;-51
2022/09/08 06:02:49;;;;;;;15.13;13.83;;;20.10;12.90;;;;;;6238772;23;20372;-45
2022/09/08 06:05:15;;;;;;;15.83;14.53;;;20.10;20.50;;;;;;6238816;23;20752;-48
2022/09/08 06:07:40;;;;;;;15.03;13.63;;;20.10;17.70;;;;;;6239293;23;20436;-49
2022/09/08 06:10:08;;;;;;;15.20;13.93;;;20.20;11.90;;;;;;6239596;23;20686;-46
2022/09/08 06:12:33;;;;;;;15.27;13.87;;;20.30;11.40;;;;;;6239808;23;20180;-53
2022/09/08 06:14:59;;;;;;;15.07;13.67;;;20.30;3.20;;;;;;6239705;23;20360;-51
2022/09/08 06:17:24;;;;;;;14.20;13.00;;;20.40;3.90;;;;;;6241506;23;20164;-48
2022/09/08 06:19:50;;;;;;;15.60;14.20;;;20.30;2.30;;;;;;6241295;23;20263;-48
2022/09/08 06:22:15;;;;;;;15.30;14.10;;;20.40;1.50;;;;;;6241497;23;20142;-47
2022/09/08 06:24:41;;;;;;;15.27;13.80;;;20.50;1.00;;;;;;6240928;23;20146;-51
2022/09/08 06:27:19;;;;;;;15.43;14.03;;;20.60;1.00;;;;;;6240673;23;20183;-46
2022/09/08 06:30:11;;;;;;;14.90;13.33;;;20.70;1.00;;;;;;6241227;23;20153;-48
2022/09/08 06:32:39;;;;;;;15.53;14.03;;;20.80;1.00;;;;;;6241182;23;20468;-44
2022/09/08 06:35:12;;;;;;;15.70;14.20;;;21.00;1.00;;;;;;6241250;23;20819;-46
2022/09/08 06:37:40;;;;;;;16.10;14.47;;;21.10;1.00;;;;;;6241162;23;20360;-45
2022/09/08 06:40:16;;;;;;;15.80;14.40;;;21.10;1.00;;;;;;6240384;23;20507;-51
2022/09/08 06:42:50;;;;;;;15.27;13.97;;;21.10;1.00;;;;;;6241140;23;20373;-50
2022/09/08 06:45:26;;;;;;;14.80;13.40;;;20.90;1.00;;;;;;6240619;23;20371;-50
2022/09/08 06:48:29;;;;;;;15.47;14.07;;;20.80;1.00;;;;;;6240741;23;21122;-48
2022/09/08 06:51:13;;;;;;;16.47;15.07;;;20.90;1.00;;;;;;6241140;22;20445;-46
2022/09/08 06:53:52;;;;;;;16.07;14.60;;;21.00;1.00;;;;;;6241213;23;20877;-45
2022/09/08 06:56:56;;;;;;;15.90;14.50;;;21.10;1.00;;;;;;6240926;23;20375;-45
2022/09/08 06:59:43;;;;;;;15.50;14.00;;;21.10;1.00;;;;;;6223573;23;20458;-46
2022/09/08 07:02:50;;;;;;;15.57;14.27;;;21.20;1.00;;;;;;6240035;23;20440;-48
2022/09/08 07:05:28;;;;;;;16.20;14.80;;;21.20;1.00;;;;;;6229621;23;20387;-46
2022/09/08 07:08:12;;;;;;;15.97;14.47;;;21.10;1.00;;;;;;6238325;23;20430;-46
2022/09/08 07:10:55;;;;;;;15.60;14.27;;;21.20;1.00;;;;;;6240119;23;20430;-47
2022/09/08 07:13:54;;;;;;;16.30;14.77;;;21.10;1.00;;;;;;6240920;23;20412;-47
2022/09/08 07:16:26;;;;;;;15.63;14.13;;;21.00;1.00;;;;;;6240604;23;20364;-51
2022/09/08 07:19:02;;;;;;;17.30;15.47;;;21.00;1.00;;;;;;6241074;23;20427;-46
2022/09/08 07:21:27;;;;;;;15.30;13.90;;;21.10;1.00;;;;;;6240823;23;20360;-48
2022/09/08 07:24:00;;;;;;;16.07;14.67;;;21.00;1.00;;;;;;6238938;22;20499;-45
2022/09/08 07:26:52;;;;;;;16.40;14.90;;;20.90;3.50;;;;;;6238885;23;20379;-50
2022/09/08 07:29:23;;;;;;;16.50;15.10;;;20.80;16.70;;;;;;6238958;23;20360;-48
2022/09/08 07:31:50;;;;;;;15.27;13.97;;;20.80;28.80;;;;;;6239126;23;20835;-49
2022/09/08 07:34:28;;;;;;;15.70;14.40;;;20.80;36.50;;;;;;6239512;23;20447;-47
2022/09/08 07:37:11;;;;;;;16.80;15.10;;;20.80;36.90;;;;;;6238680;23;20360;-49
2022/09/08 07:39:51;;;;;;;16.00;14.67;;;20.90;31.90;;;;;;6238326;23;20368;-50
2022/09/08 07:42:17;;;;;;;16.30;14.83;;;20.90;25.40;;;;;;6240201;23;20432;-46
2022/09/08 07:44:43;;;;;;;16.60;15.20;;;20.90;25.70;;;;;;6241144;23;20399;-47
2022/09/08 07:47:30;;;;;;;16.80;15.40;;;21.00;23.00;;;;;;6240163;23;20459;-45
2022/09/08 07:50:08;;;;;;;16.40;14.93;;;21.00;19.10;;;;;;6241014;23;20580;-49
2022/09/08 07:52:53;;;;;;;18.97;17.27;;;21.10;13.20;;;;;;6240617;23;20411;-49
2022/09/08 07:55:42;;;;;;;16.70;15.30;;;21.10;11.50;;;;;;6239843;23;20491;-53
2022/09/08 07:58:08;;;;;;;17.40;15.80;;;21.20;3.80;;;;;;6240657;23;20499;-46
2022/09/08 08:00:53;;;;;;;16.20;14.70;;;21.10;1.00;;;;;;6242654;23;20396;-45
2022/09/08 08:03:33;;;;;;;16.47;15.17;;;21.20;9.70;;;;;;6242827;23;20142;-47
2022/09/08 08:06:17;;;;;;;16.07;14.67;;;21.10;20.10;;;;;;6242229;23;20372;-46
2022/09/08 08:09:03;;;;;;;16.80;15.40;;;21.10;21.30;;;;;;6242959;23;20407;-46
2022/09/08 08:11:33;;;;;;;19.00;17.30;;;21.10;28.80;;;;;;6225112;23;20830;-46
2022/09/08 08:14:07;;;;;;;17.90;16.30;;;21.00;26.30;;;;;;6242503;23;20414;-49
2022/09/08 08:16:46;;;;;;;17.63;16.13;;;21.00;37.10;;;;;;6242482;23;20363;-48
2022/09/08 08:19:40;;;;;;;18.53;16.63;;;21.10;37.30;;;;;;6241121;23;20383;-45
2022/09/08 08:22:18;;;;;;;18.53;16.93;;;21.20;37.40;;;;;;6242028;23;20866;-50
2022/09/08 08:25:01;;;;;;;17.00;15.53;;;21.20;32.40;;;;;;6242056;23;20456;-47
2022/09/08 08:27:38;;;;;;;17.90;16.30;;;21.30;34.80;;;;;;6241393;23;20364;-48
2022/09/08 08:30:03;;;;;;;17.37;15.97;;;21.40;34.70;;;;;;6239963;23;21100;-47
2022/09/08 08:32:39;;;;;;;18.17;16.20;;;21.40;29.90;;;;;;6240017;23;20420;-47
2022/09/08 08:35:26;;;;;;;18.67;16.40;;;21.40;28.20;;;;;;6242049;23;20148;-48
2022/09/08 08:37:53;;;;;;;23.03;17.53;;;21.50;32.40;;;;;;6241342;23;20406;-46
2022/09/08 08:40:46;;;;;;;17.80;16.40;;;21.50;31.70;;;;;;6241851;23;20376;-48
2022/09/08 08:43:24;;;;;;;18.23;16.53;;;21.60;38.10;;;;;;6241610;23;20431;-46
2022/09/08 08:46:10;;;;;;;19.63;17.73;;;21.50;40.60;;;;;;6241718;23;20720;-50
2022/09/08 08:49:07;;;;;;;19.40;17.60;;;21.60;52.90;;;;;;6242316;23;20364;-50
2022/09/08 08:51:45;;;;;;;18.77;17.17;;;21.50;66.80;;;;;;6241857;23;20435;-45
2022/09/08 08:54:22;;;;;;;19.50;17.80;;;21.40;85.40;;;;;;6241350;23;20412;-45
2022/09/08 08:57:19;;;;;;;20.40;18.57;;;21.40;91.70;;;;;;6240346;23;20430;-47
2022/09/08 09:00:03;;;;;;;20.77;18.97;;;21.40;89.90;;;;;;6241910;23;20499;-52
2022/09/08 09:02:50;;;;;;;20.20;18.40;;;21.30;99.90;;;;;;6241043;23;20353;-50
2022/09/08 09:05:54;;;;;;;21.70;19.60;;;21.20;99.90;;;;;;6240595;23;20356;-47
2022/09/08 09:08:40;;;;;;;22.13;20.27;;;21.20;99.90;;;;;;6213686;23;20462;-49
2022/09/08 09:11:31;;;;;;;22.13;20.13;;;21.10;99.90;;;;;;6240714;23;20365;-47
2022/09/08 09:14:03;;;;;;;22.27;20.17;;;21.10;99.90;;;;;;6240721;23;20427;-46
2022/09/08 09:16:59;;;;;;;22.03;20.13;;;21.10;99.90;;;;;;6241357;23;20352;-47
2022/09/08 09:19:34;;;;;;;22.60;20.60;;;21.00;99.90;;;;;;6241683;23;20882;-50
2022/09/08 09:22:23;;;;;;;22.30;20.40;;;21.10;99.90;;;;;;6241081;23;20356;-48
2022/09/08 09:25:27;;;;;;;21.40;19.50;;;21.10;99.90;;;;;;6240739;23;20353;-49
2022/09/08 09:28:11;;;;;;;21.13;19.23;;;21.10;99.90;;;;;;6241580;22;20823;-48
2022/09/08 09:31:04;;;;;;;22.97;21.00;;;21.10;99.90;;;;;;6240201;23;20380;-50
2022/09/08 09:33:53;;;;;;;21.13;19.43;;;21.10;99.90;;;;;;6241318;23;20466;-46
2022/09/08 09:36:39;;;;;;;22.93;20.93;;;21.10;99.90;;;;;;6240465;23;20444;-50
2022/09/08 09:39:34;;;;;;;22.90;20.80;;;21.10;99.90;;;;;;6241488;23;20395;-49
2022/09/08 09:42:21;;;;;;;22.80;20.50;;;21.10;99.90;;;;;;6238950;23;20363;-48
2022/09/08 09:45:20;;;;;;;20.50;18.60;;;21.00;99.90;;;;;;6240779;23;20371;-51
2022/09/08 09:47:51;;;;;;;18.87;17.17;;;20.90;99.90;;;;;;6238921;23;20372;-54
2022/09/08 09:50:39;;;;;;;18.10;16.50;;;20.80;99.90;;;;;;6236410;23;20853;-47
2022/09/08 09:53:25;;;;;;;17.03;15.47;;;20.60;99.90;;;;;;6240131;23;20404;-50
2022/09/08 09:56:27;;;;;;;15.97;14.37;;;20.40;99.90;;;;;;6240607;23;20391;-49
2022/09/08 09:59:26;;;;;;;12.97;11.90;;;20.30;99.90;;;;;;6237730;23;20379;-47
2022/09/08 10:02:25;;;;;;;12.60;11.50;;;20.10;99.90;;;;;;6240369;23;20537;-49
2022/09/08 10:05:20;;;;;;;14.43;11.50;;;19.90;99.90;;;;;;6240878;23;20366;-48
2022/09/08 10:07:56;;;;;;;12.17;11.10;;;19.80;99.90;;;;;;6239796;23;20742;-50
2022/09/08 10:10:52;;;;;;;12.30;11.30;;;19.70;99.90;;;;;;6240151;23;20662;-50
2022/09/08 10:13:25;;;;;;;13.50;12.20;;;19.70;99.90;;;;;;6240078;23;20462;-50
2022/09/08 10:16:08;;;;;;;12.63;11.50;;;19.60;99.90;;;;;;6238680;23;20368;-52
2022/09/08 10:18:55;;;;;;;11.33;10.33;;;19.60;99.90;;;;;;6239766;23;20367;-50
2022/09/08 10:21:42;;;;;;;11.03;9.97;;;19.60;99.90;;;;;;6238936;23;20393;-50
2022/09/08 10:24:27;;;;;;;11.10;10.10;;;19.60;99.90;;;;;;6236396;22;20372;-49
2022/09/08 10:27:14;;;;;;;11.20;10.10;;;19.50;99.90;;;;;;6236645;23;20384;-48
2022/09/08 10:30:04;;;;;;;10.40;9.43;;;19.50;99.90;;;;;;6239218;23;20364;-48
2022/09/08 10:32:41;;;;;;;10.77;9.77;;;19.50;99.90;;;;;;6239730;23;20461;-48
2022/09/08 10:35:31;;;;;;;11.20;10.20;;;19.50;99.90;;;;;;6264987;22;20401;-47
2022/09/08 10:38:07;;;;;;;11.20;10.20;;;19.50;99.90;;;;;;6240878;23;20371;-47
2022/09/08 10:41:08;;;;;;;11.50;10.43;;;19.50;99.90;;;;;;6240077;23;20359;-48
2022/09/08 10:43:37;;;;;;;11.57;10.47;;;19.40;99.90;;;;;;6240891;23;20374;-51
2022/09/08 10:46:21;;;;;;;11.53;10.60;;;19.40;99.90;;;;;;6241118;23;20812;-51
2022/09/08 10:49:04;;;;;;;11.97;10.97;;;19.40;99.90;;;;;;6240522;23;20378;-50
2022/09/08 10:51:36;;;;;;;10.83;9.83;;;19.40;99.90;;;;;;6241104;23;20475;-49
2022/09/08 10:54:20;;;;;;;10.83;9.93;;;19.30;99.90;;;;;;6240807;23;20476;-52
2022/09/08 10:56:47;;;;;;;12.70;11.40;;;19.30;99.90;;;;;;6240746;22;20889;-50
2022/09/08 10:59:48;;;;;;;11.80;10.80;;;19.30;99.90;;;;;;6240565;23;20699;-53
2022/09/08 11:02:28;;;;;;;12.87;11.50;;;19.20;99.90;;;;;;6240245;23;20360;-50
2022/09/08 11:05:21;;;;;;;13.40;12.10;;;19.30;99.90;;;;;;6241094;23;20366;-49
2022/09/08 11:07:53;;;;;;;12.90;11.60;;;19.20;99.90;;;;;;6240800;23;20427;-49
2022/09/08 11:10:53;;;;;;;13.03;11.93;;;19.20;99.90;;;;;;6240292;23;20390;-50
2022/09/08 11:13:44;;;;;;;13.90;12.67;;;19.20;99.90;;;;;;6236909;23;20452;-47
2022/09/08 11:16:09;;;;;;;15.00;13.60;;;19.20;99.90;;;;;;6239507;23;20369;-48
2022/09/08 11:18:44;;;;;;;15.17;13.70;;;19.20;99.90;;;;;;6239129;23;20801;-51
2022/09/08 11:21:29;;;;;;;15.83;14.20;;;19.30;99.90;;;;;;6239431;23;20157;-50
2022/09/08 11:24:07;;;;;;;15.03;13.60;;;19.30;99.90;;;;;;6239966;23;20365;-47
2022/09/08 11:26:39;;;;;;;13.60;12.23;;;19.40;99.90;;;;;;6240312;23;20403;-50
2022/09/08 11:29:12;;;;;;;13.87;12.50;;;19.40;99.90;;;;;;6240612;23;20368;-47
2022/09/08 11:31:49;;;;;;;14.60;13.20;;;19.40;99.90;;;;;;6237071;23;20771;-48
2022/09/08 11:34:39;;;;;;;16.10;14.60;;;19.60;99.90;;;;;;6241190;23;20443;-50
2022/09/08 11:37:08;;;;;;;15.53;14.13;;;19.50;99.90;;;;;;6242058;22;20430;-54
2022/09/08 11:40:12;;;;;;;16.00;14.40;;;19.70;99.90;;;;;;6241461;23;20651;-49
2022/09/08 11:43:02;;;;;;;16.03;14.53;;;19.70;99.90;;;;;;6208173;23;20415;-51
2022/09/08 11:45:52;;;;;;;16.97;15.17;;;19.80;99.90;;;;;;6207421;23;20369;-51
2022/09/08 11:48:21;;;;;;;19.23;17.27;;;19.70;99.90;;;;;;6206646;23;20426;-49
2022/09/08 11:51:02;;;;;;;23.33;17.47;;;19.50;99.90;;;;;;6207181;23;21088;-50
2022/09/08 11:53:52;;;;;;;19.87;18.07;;;19.40;99.90;;;;;;6207894;23;20899;-48
2022/09/08 11:56:33;;;;;;;26.67;18.50;;;19.30;99.90;;;;;;6206359;23;20407;-50
2022/09/08 11:59:35;;;;;;;20.20;18.30;;;19.20;99.90;;;;;;6209191;23;20372;-50
2022/09/08 12:02:16;;;;;;;18.73;16.93;;;19.20;99.90;;;;;;6208860;23;20367;-51
2022/09/08 12:04:41;;;;;;;19.23;15.73;;;19.30;99.90;;;;;;6208380;23;20373;-51
2022/09/08 12:07:15;;;;;;;10.30;9.37;;;19.30;99.90;;;;;;6208381;23;20909;-52
2022/09/08 12:10:25;;;;;;;11.53;10.53;;;19.30;99.90;;;;;;6209132;23;20268;-51
2022/09/08 12:13:16;;;;;;;11.33;10.37;;;19.30;99.90;;;;;;6209523;23;20768;-48
2022/09/08 12:16:00;;;;;;;11.50;10.40;;;19.30;99.90;;;;;;6240978;23;20886;-55
2022/09/08 12:18:49;;;;;;;8.17;7.40;;;19.30;99.90;;;;;;6241683;23;20447;-50
2022/09/08 12:21:24;;;;;;;10.90;9.90;;;19.30;99.90;;;;;;6242379;22;20671;-49
2022/09/08 12:23:54;;;;;;;10.93;9.83;;;19.30;99.90;;;;;;6241076;22;20370;-51
2022/09/08 12:26:47;;;;;;;9.60;8.80;;;19.40;99.90;;;;;;6241151;22;20390;-49
2022/09/08 12:29:37;;;;;;;8.70;7.80;;;19.50;99.90;;;;;;6240944;23;20371;-49
2022/09/08 12:32:20;;;;;;;8.93;8.13;;;19.50;99.90;;;;;;6240648;22;20830;-50
2022/09/08 12:35:02;;;;;;;8.13;7.43;;;19.70;99.90;;;;;;6240208;22;20372;-51
2022/09/08 12:37:46;;;;;;;8.30;7.50;;;19.70;99.90;;;;;;6240515;22;21172;-47
2022/09/08 12:40:30;;;;;;;8.30;7.50;;;19.80;99.90;;;;;;6240726;22;20418;-49
2022/09/08 12:43:47;;;;;;;8.10;7.40;;;19.80;99.90;;;;;;6240831;22;20391;-50
2022/09/08 12:46:41;;;;;;;7.40;6.80;;;19.90;99.90;;;;;;6202105;22;20434;-51
2022/09/08 12:49:10;;;;;;;7.10;6.40;;;19.80;99.90;;;;;;6242250;22;20379;-49
2022/09/08 12:51:37;;;;;;;7.20;6.50;;;19.80;99.90;;;;;;6266240;22;20380;-50
2022/09/08 12:54:29;;;;;;;6.70;6.10;;;19.80;99.90;;;;;;6242354;22;20412;-49
2022/09/08 12:57:19;;;;;;;7.37;6.77;;;19.80;99.90;;;;;;6241490;22;20431;-48
2022/09/08 13:00:09;;;;;;;6.30;5.70;;;19.80;99.90;;;;;;6242106;23;20410;-47
2022/09/08 13:02:43;;;;;;;6.30;5.80;;;19.90;99.90;;;;;;6241933;22;20361;-47
2022/09/08 13:05:50;;;;;;;6.47;5.97;;;20.00;99.90;;;;;;6242301;22;21186;-46
2022/09/08 13:08:37;;;;;;;7.17;6.57;;;20.10;99.90;;;;;;6241727;23;20435;-46
2022/09/08 13:11:27;;;;;;;7.07;6.00;;;20.20;99.90;;;;;;6240269;23;20390;-47
2022/09/08 13:14:00;;;;;;;6.77;6.27;;;20.40;99.90;;;;;;6242299;22;20411;-46
2022/09/08 13:17:06;;;;;;;7.10;6.50;;;20.50;99.90;;;;;;6242173;22;20787;-50